createdAt,value
2023-04-18T00:00:28.510Z,102897.09
2023-04-18T00:02:59.709Z,102901.50
2023-04-18T00:05:29.039Z,102902.44
2023-04-18T00:07:57.284Z,102904.31
2023-04-18T00:10:25.880Z,102908.69
2023-04-18T00:12:54.793Z,102906.09
2023-04-18T00:15:22.850Z,102913.16
2023-04-18T00:17:51.044Z,102907.81
2023-04-18T00:20:20.636Z,102906.09
2023-04-18T00:22:48.726Z,102912.28
2023-04-18T00:25:16.839Z,102911.44
2023-04-18T00:27:44.988Z,102911.44
2023-04-18T00:30:13.846Z,102911.44
2023-04-18T00:32:42.030Z,102916.81
2023-04-18T00:35:10.386Z,102907.81
2023-04-18T00:37:39.844Z,102914.19
2023-04-18T00:40:09.001Z,102921.28
2023-04-18T00:42:37.090Z,102916.81
2023-04-18T00:45:05.865Z,102922.16
2023-04-18T00:47:34.001Z,102922.16
2023-04-18T00:50:02.278Z,102936.47
2023-04-18T00:52:30.608Z,102938.22
2023-04-18T00:55:00.264Z,102938.06
2023-04-18T00:57:28.730Z,102936.16
2023-04-18T00:59:56.932Z,102937.19
2023-04-18T01:02:26.217Z,102934.34
2023-04-18T01:04:54.602Z,102932.63
2023-04-18T01:07:22.693Z,102934.34
2023-04-18T01:09:50.818Z,102932.56
2023-04-18T01:12:20.320Z,102936.31
2023-04-18T01:14:48.373Z,102946.88
2023-04-18T01:17:16.426Z,102950.50
2023-04-18T01:19:44.555Z,102949.56
2023-04-18T01:22:15.126Z,102950.50
2023-04-18T01:24:44.639Z,102947.03
2023-04-18T01:27:13.600Z,102952.25
2023-04-18T01:29:42.008Z,102952.25
2023-04-18T01:32:10.080Z,102953.28
2023-04-18T01:34:38.171Z,102956.75
2023-04-18T01:37:06.278Z,102959.50
2023-04-18T01:39:34.359Z,102961.22
2023-04-18T01:42:03.907Z,102963.91
2023-04-18T01:44:31.968Z,102962.28
2023-04-18T01:47:00.124Z,102976.44
2023-04-18T01:49:28.323Z,102980.94
2023-04-18T01:51:56.389Z,102982.66
2023-04-18T01:54:24.460Z,102980.94
2023-04-18T01:56:52.589Z,102975.75
2023-04-18T01:59:22.420Z,102982.66
2023-04-18T02:01:50.543Z,102977.31
2023-04-18T02:04:18.702Z,102970.22
2023-04-18T02:06:46.767Z,102974.63
2023-04-18T02:09:14.842Z,102963.13
2023-04-18T02:11:42.894Z,102973.75
2023-04-18T02:14:11.026Z,102971.94
2023-04-18T02:16:40.628Z,102971.94
2023-04-18T02:19:08.763Z,102980.88
2023-04-18T02:21:36.834Z,102977.31
2023-04-18T02:24:05.257Z,102988.03
2023-04-18T02:26:33.324Z,102988.03
2023-04-18T02:29:01.426Z,102986.31
2023-04-18T02:31:29.769Z,102980.94
2023-04-18T02:33:59.246Z,102982.81
2023-04-18T02:36:28.173Z,102982.75
2023-04-18T02:38:56.598Z,102980.94
2023-04-18T02:41:24.686Z,102987.22
2023-04-18T02:43:52.799Z,102980.06
2023-04-18T02:46:20.883Z,102980.94
2023-04-18T02:48:48.999Z,102975.75
2023-04-18T02:51:20.104Z,102984.56
2023-04-18T02:53:48.447Z,102984.56
2023-04-18T02:56:17.520Z,102978.28
2023-04-18T02:58:45.561Z,102991.66
2023-04-18T03:01:13.680Z,102989.91
2023-04-18T03:03:41.739Z,102987.22
2023-04-18T03:06:09.921Z,102989.91
2023-04-18T03:08:39.442Z,102993.53
2023-04-18T03:11:07.509Z,102984.56
2023-04-18T03:13:35.915Z,102995.25
2023-04-18T03:16:04.252Z,103005.97
2023-04-18T03:18:32.443Z,103011.41
2023-04-18T03:21:00.806Z,103018.47
2023-04-18T03:23:28.888Z,103016.69
2023-04-18T03:25:58.449Z,103020.50
2023-04-18T03:28:26.589Z,103017.88
2023-04-18T03:30:54.674Z,103025.84
2023-04-18T03:33:22.811Z,103027.56
2023-04-18T03:35:50.992Z,103037.44
2023-04-18T03:38:19.126Z,103031.22
2023-04-18T03:40:47.223Z,103040.19
2023-04-18T03:43:16.684Z,103034.84
2023-04-18T03:45:47.456Z,103040.19
2023-04-18T03:48:15.686Z,103040.19
2023-04-18T03:50:43.898Z,102998.25
2023-04-18T03:53:11.998Z,103028.53
2023-04-18T03:55:40.399Z,103035.59
2023-04-18T03:58:08.458Z,103029.50
2023-04-18T04:00:37.996Z,103030.31
2023-04-18T04:03:07.020Z,103037.44
2023-04-18T04:05:35.364Z,103027.56
2023-04-18T04:08:03.445Z,103027.56
2023-04-18T04:10:31.531Z,103032.16
2023-04-18T04:12:59.600Z,103035.59
2023-04-18T04:15:27.688Z,103039.25
2023-04-18T04:17:57.219Z,103037.59
2023-04-18T04:20:25.934Z,103042.88
2023-04-18T04:22:54.089Z,103047.28
2023-04-18T04:25:23.951Z,103031.53
2023-04-18T04:27:53.795Z,103041.94
2023-04-18T04:30:22.346Z,103047.28
2023-04-18T04:32:50.702Z,103041.94
2023-04-18T04:35:20.423Z,103049.97
2023-04-18T04:37:48.571Z,103048.16
2023-04-18T04:40:17.640Z,103050.91
2023-04-18T04:42:46.053Z,103050.91
2023-04-18T04:45:14.246Z,103046.41
2023-04-18T04:47:42.357Z,103052.66
2023-04-18T04:50:14.885Z,103050.03
2023-04-18T04:52:44.504Z,103061.63
2023-04-18T04:55:12.701Z,103065.25
2023-04-18T04:57:40.838Z,103065.25
2023-04-18T05:00:10.113Z,103064.31
2023-04-18T05:02:38.726Z,103067.00
2023-04-18T05:05:07.250Z,103066.13
2023-04-18T05:07:35.406Z,103063.44
2023-04-18T05:10:05.706Z,103067.00
2023-04-18T05:12:33.815Z,103070.59
2023-04-18T05:15:01.912Z,103065.25
2023-04-18T05:17:29.997Z,103056.44
2023-04-18T05:19:58.131Z,103063.44
2023-04-18T05:22:26.656Z,103068.00
2023-04-18T05:24:54.780Z,103074.16
2023-04-18T05:27:24.285Z,103079.50
2023-04-18T05:29:53.779Z,103077.72
2023-04-18T05:32:22.253Z,103075.94
2023-04-18T05:34:51.190Z,103077.72
2023-04-18T05:37:19.278Z,103078.63
2023-04-18T05:39:47.486Z,103080.47
2023-04-18T05:42:15.684Z,103073.28
2023-04-18T05:44:45.152Z,103081.31
2023-04-18T05:47:13.202Z,103081.31
2023-04-18T05:49:41.502Z,103075.09
2023-04-18T05:52:09.608Z,103080.47
2023-04-18T05:54:37.693Z,103076.91
2023-04-18T05:57:05.747Z,103079.59
2023-04-18T05:59:33.876Z,103081.31
2023-04-18T06:02:03.424Z,103084.88
2023-04-18T06:04:31.726Z,103088.56
2023-04-18T06:07:00.052Z,103083.22
2023-04-18T06:09:28.136Z,103081.31
2023-04-18T06:11:57.913Z,103083.06
2023-04-18T06:14:26.136Z,103082.19
2023-04-18T06:16:54.237Z,103091.09
2023-04-18T06:19:23.716Z,103093.78
2023-04-18T06:21:52.040Z,103086.66
2023-04-18T06:24:20.116Z,103092.19
2023-04-18T06:26:48.487Z,103092.03
2023-04-18T06:29:18.113Z,103100.06
2023-04-18T06:31:48.418Z,103102.75
2023-04-18T06:34:16.652Z,103086.81
2023-04-18T06:36:46.090Z,103100.00
2023-04-18T06:39:14.153Z,103094.00
2023-04-18T06:41:42.185Z,103104.50
2023-04-18T06:44:10.258Z,103109.88
2023-04-18T06:46:38.348Z,103102.75
2023-04-18T06:49:06.402Z,103103.69
2023-04-18T06:51:34.434Z,103113.47
2023-04-18T06:54:03.884Z,103116.22
2023-04-18T06:56:33.009Z,103112.53
2023-04-18T06:59:02.342Z,103120.56
2023-04-18T07:01:32.659Z,103115.22
2023-04-18T07:04:00.924Z,103113.47
2023-04-18T07:06:29.070Z,103119.69
2023-04-18T07:09:00.216Z,103113.47
2023-04-18T07:11:29.911Z,103112.53
2023-04-18T07:13:57.962Z,103105.44
2023-04-18T07:16:26.028Z,103114.34
2023-04-18T07:18:54.136Z,103115.22
2023-04-18T07:21:22.158Z,103108.03
2023-04-18T07:23:50.220Z,103116.94
2023-04-18T07:26:18.296Z,103109.88
2023-04-18T07:28:47.835Z,103104.50
2023-04-18T07:31:16.713Z,103111.59
2023-04-18T07:33:44.901Z,103114.25
2023-04-18T07:36:13.030Z,103103.56
2023-04-18T07:38:41.340Z,103110.72
2023-04-18T07:41:09.392Z,103108.91
2023-04-18T07:43:38.735Z,103104.50
2023-04-18T07:46:08.559Z,103106.22
2023-04-18T07:48:36.608Z,103104.66
2023-04-18T07:51:05.137Z,103106.22
2023-04-18T07:53:33.187Z,103110.72
2023-04-18T07:56:01.213Z,103112.47
2023-04-18T07:58:29.276Z,103111.59
2023-04-18T08:00:57.488Z,103114.25
2023-04-18T08:03:27.972Z,103107.09
2023-04-18T08:05:56.792Z,103107.09
2023-04-18T08:08:24.886Z,103112.53
2023-04-18T08:10:52.931Z,103113.31
2023-04-18T08:13:21.374Z,103107.09
2023-04-18T08:15:49.850Z,103108.31
2023-04-18T08:18:17.904Z,103106.22
2023-04-18T08:20:48.308Z,103111.59
2023-04-18T08:23:16.387Z,103111.59
2023-04-18T08:25:44.501Z,103109.88
2023-04-18T08:28:12.693Z,103116.94
2023-04-18T08:30:40.973Z,103116.00
2023-04-18T08:33:09.164Z,103111.59
2023-04-18T08:35:37.230Z,103113.31
2023-04-18T08:38:06.794Z,103100.88
2023-04-18T08:40:34.847Z,103118.66
2023-04-18T08:43:05.116Z,103101.03
2023-04-18T08:45:33.429Z,103109.78
2023-04-18T08:48:03.671Z,103107.09
2023-04-18T08:50:33.048Z,103076.88
2023-04-18T08:53:01.997Z,103099.91
2023-04-18T08:55:33.719Z,103102.59
2023-04-18T08:58:02.011Z,103097.25
2023-04-18T09:00:30.605Z,103097.25
2023-04-18T09:02:59.211Z,103097.25
2023-04-18T09:05:28.527Z,103117.75
2023-04-18T09:07:57.409Z,103102.59
2023-04-18T09:10:33.112Z,103093.63
2023-04-18T09:13:03.554Z,103104.34
2023-04-18T09:15:32.544Z,103093.63
2023-04-18T09:18:03.069Z,103099.00
2023-04-18T09:20:38.037Z,103111.59
2023-04-18T09:23:10.630Z,103093.78
2023-04-18T09:25:46.776Z,103109.88
2023-04-18T09:28:27.048Z,103087.56
2023-04-18T09:30:56.281Z,103086.81
2023-04-18T09:33:29.351Z,103092.03
2023-04-18T09:36:00.303Z,103092.03
2023-04-18T09:38:41.261Z,103101.03
2023-04-18T09:41:11.277Z,103091.19
2023-04-18T09:43:39.472Z,103090.31
2023-04-18T09:46:09.288Z,103079.59
2023-04-18T09:48:37.535Z,103092.03
2023-04-18T09:51:08.331Z,103092.03
2023-04-18T09:53:40.686Z,103078.72
2023-04-18T09:56:15.894Z,103076.84
2023-04-18T09:58:47.866Z,103078.63
2023-04-18T10:01:16.837Z,103086.66
2023-04-18T10:03:48.192Z,103083.06
2023-04-18T10:06:17.909Z,103076.84
2023-04-18T10:08:46.661Z,103077.72
2023-04-18T10:11:17.965Z,103077.72
2023-04-18T10:13:49.336Z,103067.00
2023-04-18T10:16:18.291Z,103034.19
2023-04-18T10:18:46.482Z,103062.56
2023-04-18T10:21:14.610Z,103064.47
2023-04-18T10:23:42.789Z,103059.88
2023-04-18T10:26:11.830Z,103064.31
2023-04-18T10:28:56.929Z,103056.28
2023-04-18T10:31:26.249Z,103059.88
2023-04-18T10:34:04.536Z,103046.78
2023-04-18T10:36:33.431Z,103040.34
2023-04-18T10:39:04.236Z,103060.75
2023-04-18T10:41:33.497Z,103048.25
2023-04-18T10:44:20.183Z,103059.88
2023-04-18T10:47:24.264Z,103056.28
2023-04-18T10:49:57.643Z,103053.69
2023-04-18T10:52:26.245Z,103053.69
2023-04-18T10:54:59.582Z,103067.00
2023-04-18T10:57:39.008Z,103046.78
2023-04-18T11:00:14.448Z,103021.56
2023-04-18T11:02:49.290Z,103034.44
2023-04-18T11:05:21.888Z,103044.75
2023-04-18T11:07:50.497Z,103027.72
2023-04-18T11:10:20.365Z,103029.50
2023-04-18T11:12:48.963Z,103034.84
2023-04-18T11:15:22.320Z,103040.19
2023-04-18T11:17:58.072Z,103040.19
2023-04-18T11:20:26.721Z,103036.56
2023-04-18T11:22:56.482Z,103026.66
2023-04-18T11:25:27.038Z,103027.56
2023-04-18T11:27:55.939Z,103016.84
2023-04-18T11:30:25.433Z,103024.03
2023-04-18T11:32:54.373Z,103034.69
2023-04-18T11:35:22.474Z,103023.97
2023-04-18T11:37:51.386Z,103025.78
2023-04-18T11:40:19.598Z,103026.66
2023-04-18T11:42:47.715Z,103014.97
2023-04-18T11:45:16.760Z,103012.38
2023-04-18T11:47:48.345Z,103007.91
2023-04-18T11:50:16.469Z,103014.97
2023-04-18T11:52:44.656Z,103001.59
2023-04-18T11:55:17.748Z,103004.25
2023-04-18T11:57:52.590Z,102997.94
2023-04-18T12:00:31.614Z,103004.25
2023-04-18T12:03:02.926Z,102993.53
2023-04-18T12:05:32.613Z,102973.03
2023-04-18T12:08:08.121Z,103004.25
2023-04-18T12:10:37.049Z,102992.75
2023-04-18T12:13:08.647Z,103003.38
2023-04-18T12:15:39.942Z,102993.53
2023-04-18T12:18:09.636Z,102988.19
2023-04-18T12:20:39.372Z,102993.69
2023-04-18T12:23:08.113Z,102983.78
2023-04-18T12:25:36.572Z,102981.94
2023-04-18T12:28:14.895Z,102988.19
2023-04-18T12:30:43.924Z,102974.78
2023-04-18T12:33:13.430Z,102988.19
2023-04-18T12:35:42.573Z,102986.47
2023-04-18T12:38:10.654Z,102980.38
2023-04-18T12:40:40.823Z,102980.22
2023-04-18T12:43:10.674Z,102982.03
2023-04-18T12:45:38.888Z,102986.47
2023-04-18T12:48:07.753Z,102979.34
2023-04-18T12:50:37.330Z,102975.75
2023-04-18T12:53:06.154Z,102970.69
2023-04-18T12:55:34.370Z,102969.44
2023-04-18T12:58:02.579Z,102968.56
2023-04-18T13:00:32.636Z,102964.06
2023-04-18T13:03:01.232Z,102982.81
2023-04-18T13:05:33.701Z,102965.88
2023-04-18T13:10:34.682Z,102968.16
2023-04-18T13:13:02.830Z,102978.88
2023-04-18T13:15:30.954Z,102973.50
2023-04-18T13:18:04.444Z,102968.16
2023-04-18T13:20:33.146Z,102963.69
2023-04-18T13:23:01.199Z,102962.78
2023-04-18T13:25:30.750Z,102958.31
2023-04-18T13:28:00.940Z,102954.75
2023-04-18T13:30:29.317Z,102962.78
2023-04-18T13:32:57.646Z,102950.50
2023-04-18T13:35:25.786Z,102968.16
2023-04-18T13:37:53.984Z,102957.44
2023-04-18T13:40:22.261Z,102956.50
2023-04-18T13:42:51.769Z,102952.97
2023-04-18T13:45:20.602Z,102968.16
2023-04-18T13:47:48.853Z,102959.19
2023-04-18T13:50:16.972Z,102956.50
2023-04-18T13:52:45.176Z,102931.91
2023-04-18T13:55:13.506Z,102952.97
2023-04-18T13:57:41.552Z,102950.28
2023-04-18T14:00:14.045Z,102946.72
2023-04-18T14:02:42.598Z,102962.78
2023-04-18T14:05:11.451Z,102946.88
2023-04-18T14:07:39.646Z,102950.34
2023-04-18T14:10:08.775Z,102922.72
2023-04-18T14:12:36.889Z,102950.69
2023-04-18T14:15:05.575Z,102947.03
2023-04-18T14:17:35.208Z,102941.84
2023-04-18T14:20:03.473Z,102942.63
2023-04-18T14:22:31.541Z,102945.31
2023-04-18T14:24:59.648Z,102941.69
2023-04-18T14:27:27.855Z,102939.97
2023-04-18T14:29:55.985Z,102945.31
2023-04-18T14:32:24.073Z,102936.41
2023-04-18T14:34:53.732Z,102941.69
2023-04-18T14:37:22.397Z,102934.59
2023-04-18T14:39:50.976Z,102931.91
2023-04-18T14:42:19.521Z,102932.88
2023-04-18T14:44:47.551Z,102929.09
2023-04-18T14:47:15.921Z,102936.16
2023-04-18T14:49:44.003Z,102937.91
2023-04-18T14:52:13.476Z,102931.69
2023-04-18T14:54:41.479Z,102926.31
2023-04-18T14:57:10.352Z,102938.84
2023-04-18T14:59:38.376Z,102925.44
2023-04-18T15:02:06.549Z,102928.13
2023-04-18T15:04:34.792Z,102930.81
2023-04-18T15:07:02.938Z,102929.88
2023-04-18T15:09:37.411Z,102928.03
2023-04-18T15:12:06.656Z,102930.81
2023-04-18T15:14:35.055Z,102927.19
2023-04-18T15:17:04.611Z,102925.44
2023-04-18T15:19:33.048Z,102927.19
2023-04-18T15:22:01.395Z,102920.09
2023-04-18T15:24:29.520Z,102918.38
2023-04-18T15:26:59.121Z,102925.44
2023-04-18T15:29:27.303Z,102928.13
2023-04-18T15:31:55.366Z,102930.81
2023-04-18T15:34:23.450Z,102925.44
2023-04-18T15:36:51.538Z,102930.81
2023-04-18T15:39:23.343Z,102930.81
2023-04-18T15:41:54.584Z,102926.31
2023-04-18T15:44:24.386Z,102936.16
2023-04-18T15:46:52.432Z,102935.25
2023-04-18T15:49:20.569Z,102941.53
2023-04-18T15:51:48.621Z,102936.16
2023-04-18T15:54:16.898Z,102936.16
2023-04-18T15:56:45.130Z,102939.78
2023-04-18T15:59:13.785Z,102899.81
2023-04-18T16:01:45.686Z,102946.81
2023-04-18T16:04:14.599Z,102942.41
2023-04-18T16:06:43.305Z,102939.78
2023-04-18T16:09:11.377Z,102941.59
2023-04-18T16:11:39.420Z,102944.28
2023-04-18T16:14:07.779Z,102939.78
2023-04-18T16:16:35.873Z,102939.78
2023-04-18T16:19:05.758Z,102956.84
2023-04-18T16:21:33.848Z,102950.50
2023-04-18T16:24:02.139Z,102946.88
2023-04-18T16:26:30.277Z,102949.56
2023-04-18T16:28:58.377Z,102946.03
2023-04-18T16:31:26.554Z,102948.63
2023-04-18T16:33:54.831Z,102948.63
2023-04-18T16:36:24.325Z,102951.16
2023-04-18T16:38:52.380Z,102942.25
2023-04-18T16:41:20.407Z,102947.59
2023-04-18T16:43:48.420Z,102943.13
2023-04-18T16:46:16.492Z,102952.06
2023-04-18T16:48:45.373Z,102945.00
2023-04-18T16:51:13.816Z,102941.38
2023-04-18T16:53:43.251Z,102946.72
2023-04-18T16:56:11.449Z,102946.88
2023-04-18T16:58:39.505Z,102952.25
2023-04-18T17:01:08.368Z,102949.56
2023-04-18T17:03:36.764Z,102946.88
2023-04-18T17:06:05.951Z,102952.06
2023-04-18T17:08:34.269Z,102952.06
2023-04-18T17:11:04.016Z,102955.72
2023-04-18T17:13:32.475Z,102969.13
2023-04-18T17:16:00.809Z,102954.84
2023-04-18T17:18:29.493Z,102960.19
2023-04-18T17:20:57.695Z,102959.34
2023-04-18T17:23:25.794Z,102964.72
2023-04-18T17:25:53.888Z,102964.72
2023-04-18T17:28:25.225Z,102959.34
2023-04-18T17:30:53.273Z,102962.78
2023-04-18T17:33:21.363Z,102967.31
2023-04-18T17:35:50.381Z,102968.16
2023-04-18T17:38:18.426Z,102968.16
2023-04-18T17:40:46.502Z,102968.16
2023-04-18T17:43:14.556Z,102982.50
2023-04-18T17:45:44.203Z,102982.50
2023-04-18T17:48:12.380Z,102972.75
2023-04-18T17:50:42.258Z,102944.22
2023-04-18T17:53:12.052Z,102983.47
2023-04-18T17:55:41.494Z,102982.50
2023-04-18T17:58:09.687Z,102986.16
2023-04-18T18:00:37.731Z,102986.16
2023-04-18T18:03:09.364Z,102982.66
2023-04-18T18:05:37.534Z,102991.50
2023-04-18T18:08:05.977Z,103002.22
2023-04-18T18:10:34.907Z,102993.22
2023-04-18T18:13:03.340Z,102992.44
2023-04-18T18:15:31.454Z,102996.88
2023-04-18T18:17:59.648Z,103002.22
2023-04-18T18:20:29.480Z,102999.53
2023-04-18T18:22:59.586Z,102995.09
2023-04-18T18:25:28.717Z,103002.22
2023-04-18T18:27:56.876Z,103008.44
2023-04-18T18:30:25.036Z,103002.22
2023-04-18T18:32:54.325Z,103004.09
2023-04-18T18:35:22.561Z,103003.94
2023-04-18T18:37:52.124Z,103012.94
2023-04-18T18:40:20.447Z,103013.78
2023-04-18T18:42:51.417Z,103013.78
2023-04-18T18:45:21.238Z,103014.81
2023-04-18T18:47:49.469Z,103023.81
2023-04-18T18:50:17.812Z,103025.53
2023-04-18T18:52:45.964Z,103026.41
2023-04-18T18:55:16.421Z,103033.50
2023-04-18T18:57:44.613Z,103032.63
2023-04-18T19:00:13.797Z,103032.63
2023-04-18T19:02:42.039Z,103032.63
2023-04-18T19:05:12.609Z,102941.56
2023-04-18T19:07:42.464Z,103036.25
2023-04-18T19:10:11.472Z,103038.13
2023-04-18T19:12:40.985Z,103042.50
2023-04-18T19:15:12.567Z,103037.28
2023-04-18T19:17:41.784Z,103045.25
2023-04-18T19:20:10.589Z,103041.63
2023-04-18T19:22:39.140Z,103045.25
2023-04-18T19:25:08.507Z,103038.94
2023-04-18T19:27:38.818Z,103039.91
2023-04-18T19:30:10.693Z,103050.59
2023-04-18T19:32:38.952Z,103045.25
2023-04-18T19:35:09.929Z,103044.28
2023-04-18T19:37:38.396Z,103050.47
2023-04-18T19:40:07.829Z,103052.03
2023-04-18T19:42:35.874Z,103057.22
2023-04-18T19:45:04.263Z,103055.28
2023-04-18T19:47:34.052Z,103056.91
2023-04-18T19:50:02.478Z,103053.28
2023-04-18T19:52:30.555Z,103058.50
2023-04-18T19:54:58.755Z,103054.88
2023-04-18T19:57:28.884Z,103053.13
2023-04-18T19:59:56.914Z,103061.00
2023-04-18T20:02:25.159Z,103064.56
2023-04-18T20:04:54.870Z,103061.81
2023-04-18T20:07:26.233Z,103060.09
2023-04-18T20:09:54.462Z,103052.97
2023-04-18T20:12:22.475Z,103063.53
2023-04-18T20:14:50.522Z,103058.34
2023-04-18T20:17:19.110Z,103054.56
2023-04-18T20:19:49.882Z,103059.94
2023-04-18T20:22:19.978Z,103062.53
2023-04-18T20:24:48.807Z,103063.38
2023-04-18T20:27:20.451Z,103065.13
2023-04-18T20:29:48.624Z,103066.06
2023-04-18T20:32:16.864Z,103061.50
2023-04-18T20:34:45.787Z,103067.69
2023-04-18T20:37:18.711Z,103068.59
2023-04-18T20:39:48.322Z,103065.91
2023-04-18T20:42:17.571Z,103063.22
2023-04-18T20:44:46.953Z,103073.06
2023-04-18T20:47:15.920Z,103073.00
2023-04-18T20:49:44.153Z,103070.31
2023-04-18T20:52:14.388Z,103077.44
2023-04-18T20:54:42.719Z,103075.66
2023-04-18T20:57:12.173Z,103081.81
2023-04-18T20:59:40.246Z,103079.16
2023-04-18T21:02:09.319Z,103081.81
2023-04-18T21:04:38.056Z,103080.88
2023-04-18T21:07:06.172Z,103072.91
2023-04-18T21:09:36.648Z,103075.50
2023-04-18T21:12:05.123Z,103075.50
2023-04-18T21:14:36.130Z,103065.13
2023-04-18T21:17:04.162Z,103084.34
2023-04-18T21:19:32.327Z,103083.47
2023-04-18T21:22:00.608Z,103083.47
2023-04-18T21:24:28.711Z,103071.91
2023-04-18T21:26:57.875Z,103075.50
2023-04-18T21:29:25.924Z,103084.50
2023-04-18T21:31:56.073Z,103077.44
2023-04-18T21:34:24.308Z,103063.38
2023-04-18T21:36:52.387Z,103077.25
2023-04-18T21:39:20.563Z,103071.91
2023-04-18T21:41:48.636Z,103080.88
2023-04-18T21:44:18.845Z,103075.50
2023-04-18T21:46:47.064Z,103080.88
2023-04-18T21:49:17.539Z,103079.16
2023-04-18T21:51:46.208Z,103082.78
2023-04-18T21:54:14.406Z,103081.91
2023-04-18T21:56:42.967Z,103088.06
2023-04-18T21:59:11.122Z,103075.66
2023-04-18T22:01:39.421Z,103084.50
2023-04-18T22:04:07.930Z,103088.91
2023-04-18T22:06:37.660Z,103084.50
2023-04-18T22:09:06.283Z,103088.16
2023-04-18T22:11:34.354Z,103093.50
2023-04-18T22:14:02.390Z,103088.16
2023-04-18T22:16:30.650Z,103090.75
2023-04-18T22:18:58.664Z,103090.75
2023-04-18T22:21:26.688Z,103089.88
2023-04-18T22:23:56.234Z,103081.03
2023-04-18T22:26:24.343Z,103089.00
2023-04-18T22:28:52.509Z,103088.16
2023-04-18T22:31:20.666Z,103083.63
2023-04-18T22:33:48.813Z,103089.88
2023-04-18T22:36:16.894Z,103084.50
2023-04-18T22:38:45.009Z,103087.13
2023-04-18T22:41:14.535Z,103088.16
2023-04-18T22:43:42.657Z,103095.22
2023-04-18T22:46:10.875Z,103091.59
2023-04-18T22:48:38.959Z,103086.22
2023-04-18T22:51:07.625Z,103096.97
2023-04-18T22:53:35.718Z,103089.00
2023-04-18T22:56:03.845Z,103088.16
2023-04-18T22:58:33.933Z,103090.03
2023-04-18T23:01:02.100Z,103087.28
2023-04-18T23:03:34.325Z,103071.97
2023-04-18T23:06:02.708Z,103104.38
2023-04-18T23:08:30.978Z,103099.19
2023-04-18T23:10:59.092Z,103099.34
2023-04-18T23:13:27.328Z,103098.47
2023-04-18T23:15:56.874Z,103092.41
2023-04-18T23:18:25.035Z,103101.22
2023-04-18T23:20:53.069Z,103108.50
2023-04-18T23:23:21.169Z,103101.38
2023-04-18T23:25:49.249Z,103110.38
2023-04-18T23:28:17.340Z,103098.84
2023-04-18T23:30:45.546Z,103096.31
2023-04-18T23:33:15.059Z,103096.16
2023-04-18T23:35:43.166Z,103076.78
2023-04-18T23:38:11.257Z,103097.19
2023-04-18T23:40:39.379Z,103094.59
2023-04-18T23:43:07.465Z,103098.16
2023-04-18T23:45:36.670Z,103094.59
2023-04-18T23:48:05.020Z,103083.00
2023-04-18T23:50:35.873Z,103074.13
2023-04-18T23:53:04.041Z,103075.03
2023-04-18T23:55:32.285Z,103069.69
2023-04-18T23:58:00.758Z,103065.44
